VOHS

Rajiv Gandhi International Airport

Airport
ICAO code
VOHS
IATA Code
HYD
Summary
ICAO Region
APAC
ICAO Territory
Location

Shamshabad, Telangana

Serving
Hyderabad
Elevation
2024 ft
Coordinates
17° 14' 12" N , 78° 25' 48" E
KCC
Metar
Observation
VOHS 070130Z VRB04KT 4000 BR NSC 19/16 Q1014 NOSIG
Station
RAJIV GANDHI INL
Date/Time
2023-02-07 02:30:00
Wind speed
04 kts
Lowest cloud amount
nil significant cloud
Temperature
19°C
Dew point
16°C
Humidity
82%
QNH
1014 hPa
Weather condition
n/a

Rajiv Gandhi International Airport, also known as Hyderabad International Airport, is an international airport located near Shamshabad, 22 km south of the central business district of Hyderabad, a city in the state of Andhra Pradesh, India.

Climatology

Tropical Savanna climate (Köppen climate classification Aw) - monthly mean temperatures above 18°C, and a pronounced dry season. A Tropical Savanna climate has more pronounced dry seasons than a Tropical Monsoon climate.

Airport map

Aerial View

SKYbrary Partners:

Safety knowledge contributed by: